TimeEDT,TemperatureF,Dew PointF,Humidity,Sea Level PressureIn,VisibilityMPH,Wind Direction,Wind SpeedMPH,Gust SpeedMPH,PrecipitationIn,Events,Conditions,WindDirDegrees,DateUTC
12:53 AM,53.1,44.1,71,29.73,10.0,South,20.7,33.4,N/A,,Overcast,180,2013-03-12 04:53:00
1:53 AM,54.0,45.0,72,29.72,10.0,South,18.4,27.6,N/A,,Overcast,180,2013-03-12 05:53:00
2:53 AM,54.0,45.0,72,29.73,10.0,South,12.7,-,N/A,,Overcast,190,2013-03-12 06:53:00
3:53 AM,52.0,46.0,80,29.73,9.0,SSW,10.4,-,0.00,Rain,Light Rain,210,2013-03-12 07:53:00
4:53 AM,50.0,46.0,86,29.73,10.0,NW,5.8,-,0.01,,Overcast,320,2013-03-12 08:53:00
5:18 AM,50.0,46.4,87,29.73,3.0,NW,4.6,-,0.03,Rain,Rain,310,2013-03-12 09:18:00
5:29 AM,48.2,46.4,93,29.73,2.5,Variable,3.5,-,0.07,Rain,Rain,0,2013-03-12 09:29:00
5:38 AM,48.2,44.6,87,29.73,5.0,SSW,3.5,-,0.08,Rain,Light Rain,210,2013-03-12 09:38:00
5:53 AM,48.0,46.0,93,29.75,4.0,South,4.6,-,0.09,Rain,Light Rain,190,2013-03-12 09:53:00
6:21 AM,46.4,44.6,93,29.75,2.5,SSW,4.6,-,0.02,Rain,Light Rain,200,2013-03-12 10:21:00
6:37 AM,46.4,44.6,93,29.77,3.0,WNW,8.1,-,0.04,Rain,Light Rain,300,2013-03-12 10:37:00
6:50 AM,44.6,41.0,87,29.77,4.0,NNW,4.6,-,0.06,Rain,Light Rain,340,2013-03-12 10:50:00
6:53 AM,44.1,41.0,89,29.78,5.0,NW,4.6,-,0.06,Rain,Light Rain,320,2013-03-12 10:53:00
7:20 AM,44.6,41.0,87,29.76,7.0,Calm,Calm,-,0.01,Rain,Light Rain,0,2013-03-12 11:20:00
7:48 AM,42.8,39.2,87,29.78,6.0,Calm,Calm,-,0.02,Rain,Light Rain,0,2013-03-12 11:48:00
7:53 AM,43.0,41.0,93,29.79,6.0,Calm,Calm,-,0.02,Rain,Light Rain,0,2013-03-12 11:53:00
8:21 AM,42.8,39.2,87,29.79,3.0,NNW,8.1,-,0.02,Rain,Light Rain,330,2013-03-12 12:21:00
8:53 AM,39.9,37.0,89,29.83,2.5,Variable,3.5,-,0.05,Rain,Rain,0,2013-03-12 12:53:00
9:16 AM,39.2,37.4,93,29.80,6.0,Variable,3.5,-,0.00,Rain,Light Rain,0,2013-03-12 13:16:00
9:25 AM,39.2,37.4,93,29.80,7.0,WNW,4.6,-,0.01,Rain,Light Rain,290,2013-03-12 13:25:00
9:53 AM,39.9,36.0,86,29.83,10.0,Variable,4.6,-,0.01,,Overcast,0,2013-03-12 13:53:00
10:53 AM,39.0,34.0,82,29.84,10.0,West,4.6,-,N/A,,Overcast,280,2013-03-12 14:53:00
11:17 AM,39.2,33.8,81,29.83,10.0,West,5.8,-,N/A,,Overcast,260,2013-03-12 15:17:00
11:53 AM,39.9,33.1,77,29.83,10.0,West,11.5,16.1,N/A,,Overcast,260,2013-03-12 15:53:00
12:53 PM,39.9,34.0,79,29.83,9.0,WSW,4.6,-,0.00,Rain,Light Rain,240,2013-03-12 16:53:00
1:09 PM,39.2,33.8,81,29.82,10.0,SW,6.9,-,0.00,Rain,Light Rain,220,2013-03-12 17:09:00
1:53 PM,42.1,33.1,70,29.81,10.0,West,3.5,-,0.00,,Overcast,270,2013-03-12 17:53:00
2:02 PM,42.8,33.8,70,29.80,10.0,West,5.8,-,N/A,,Overcast,260,2013-03-12 18:02:00
2:53 PM,43.0,33.1,68,29.80,10.0,NW,5.8,-,N/A,,Overcast,310,2013-03-12 18:53:00
3:41 PM,42.8,32.0,66,29.79,10.0,WNW,10.4,-,N/A,,Overcast,290,2013-03-12 19:41:00
3:53 PM,41.0,32.0,70,29.81,10.0,NW,11.5,-,N/A,,Overcast,310,2013-03-12 19:53:00
4:30 PM,39.2,32.0,75,29.81,10.0,WNW,5.8,-,N/A,,Overcast,290,2013-03-12 20:30:00
4:53 PM,39.9,32.0,73,29.83,10.0,WNW,5.8,-,N/A,,Overcast,300,2013-03-12 20:53:00
5:53 PM,39.0,30.9,73,29.84,10.0,WNW,10.4,16.1,N/A,,Overcast,290,2013-03-12 21:53:00
6:53 PM,37.0,30.0,76,29.87,10.0,WNW,8.1,16.1,N/A,,Overcast,300,2013-03-12 22:53:00
7:53 PM,37.0,28.9,73,29.90,10.0,West,8.1,-,N/A,,Overcast,270,2013-03-12 23:53:00
8:53 PM,36.0,28.0,73,29.91,10.0,West,10.4,17.3,N/A,,Overcast,260,2013-03-13 00:53:00
9:53 PM,36.0,27.0,70,29.92,10.0,West,9.2,-,N/A,,Overcast,280,2013-03-13 01:53:00
10:53 PM,36.0,28.0,73,29.92,10.0,West,8.1,-,N/A,,Overcast,270,2013-03-13 02:53:00
11:53 PM,35.1,28.0,76,29.91,10.0,West,8.1,-,N/A,,Overcast,270,2013-03-13 03:53:00